createdAt,value
2023-01-08T00:00:03.245Z,69.39
2023-01-08T00:03:02.311Z,69.33
2023-01-08T00:05:39.763Z,69.25
2023-01-08T00:08:18.482Z,69.37
2023-01-08T00:11:11.591Z,69.07
2023-01-08T00:14:04.953Z,68.79
2023-01-08T00:16:39.687Z,68.80
2023-01-08T00:19:15.222Z,69.09
2023-01-08T00:21:49.947Z,68.99
2023-01-08T00:24:30.359Z,69.17
2023-01-08T00:27:15.911Z,69.40
2023-01-08T00:30:07.760Z,69.36
2023-01-08T00:32:39.976Z,69.09
2023-01-08T00:35:13.108Z,69.02
2023-01-08T00:37:49.261Z,69.18
2023-01-08T00:40:42.606Z,69.29
2023-01-08T00:43:17.443Z,69.23
2023-01-08T00:46:10.504Z,69.25
2023-01-08T00:48:42.034Z,69.16
2023-01-08T00:51:12.535Z,69.16
2023-01-08T00:53:46.998Z,69.24
2023-01-08T00:56:19.293Z,69.17
2023-01-08T00:59:11.128Z,69.14
2023-01-08T01:01:42.328Z,68.79
2023-01-08T01:04:12.897Z,68.75
2023-01-08T01:06:46.932Z,68.64
2023-01-08T01:09:18.563Z,68.60
2023-01-08T01:11:49.547Z,68.52
2023-01-08T01:14:19.621Z,68.68
2023-01-08T01:17:09.473Z,68.78
2023-01-08T01:19:39.363Z,68.62
2023-01-08T01:22:08.441Z,69.12
2023-01-08T01:24:42.003Z,69.19
2023-01-08T01:27:13.067Z,69.31
2023-01-08T01:29:44.027Z,69.32
2023-01-08T01:32:13.876Z,69.18
2023-01-08T01:34:44.667Z,69.24
2023-01-08T01:37:17.948Z,69.56
2023-01-08T01:39:49.524Z,69.25
2023-01-08T01:42:34.677Z,68.96
2023-01-08T01:45:04.371Z,69.10
2023-01-08T01:47:40.279Z,69.37
2023-01-08T01:50:13.473Z,69.32
2023-01-08T01:52:47.349Z,69.55
2023-01-08T01:55:19.173Z,69.58
2023-01-08T01:57:54.268Z,69.70
2023-01-08T02:00:24.052Z,69.93
2023-01-08T02:02:54.703Z,69.85
2023-01-08T02:05:23.981Z,69.81
2023-01-08T02:07:58.986Z,70.16
2023-01-08T02:10:37.444Z,70.06
2023-01-08T02:13:14.571Z,70.13
2023-01-08T02:15:54.300Z,70.07
2023-01-08T02:18:31.157Z,70.08
2023-01-08T02:21:04.920Z,70.10
2023-01-08T02:23:43.629Z,69.78
2023-01-08T02:26:21.087Z,69.91
2023-01-08T02:28:58.180Z,69.88
2023-01-08T02:31:29.825Z,69.90
2023-01-08T02:33:59.129Z,69.78
2023-01-08T02:36:46.593Z,69.86
2023-01-08T02:39:25.741Z,69.88
2023-01-08T02:42:07.939Z,69.55
2023-01-08T02:44:48.435Z,69.80
2023-01-08T02:47:26.118Z,69.57
2023-01-08T02:50:01.875Z,69.64
2023-01-08T02:52:34.584Z,69.51
2023-01-08T02:55:06.034Z,69.52
2023-01-08T02:57:37.691Z,69.71
2023-01-08T03:00:08.523Z,69.73
2023-01-08T03:02:41.237Z,69.55
2023-01-08T03:05:24.300Z,69.85
2023-01-08T03:07:53.050Z,69.74
2023-01-08T03:10:26.709Z,69.97
2023-01-08T03:13:01.254Z,70.02
2023-01-08T03:15:35.594Z,70.10
2023-01-08T03:18:10.588Z,70.09
2023-01-08T03:20:40.335Z,70.08
2023-01-08T03:23:12.068Z,70.12
2023-01-08T03:25:54.490Z,70.15
2023-01-08T03:28:46.504Z,69.68
2023-01-08T03:31:17.202Z,69.70
2023-01-08T03:33:48.742Z,69.94
2023-01-08T03:36:22.330Z,69.79
2023-01-08T03:38:58.008Z,69.79
2023-01-08T03:41:31.037Z,69.93
2023-01-08T03:44:00.952Z,70.03
2023-01-08T03:46:32.718Z,69.72
2023-01-08T03:49:03.535Z,69.80
2023-01-08T03:51:41.055Z,69.83
2023-01-08T03:54:14.641Z,69.76
2023-01-08T03:56:43.667Z,69.57
2023-01-08T03:59:14.877Z,69.81
2023-01-08T04:01:44.756Z,69.47
2023-01-08T04:04:13.711Z,69.63
2023-01-08T04:06:45.928Z,69.38
2023-01-08T04:09:14.968Z,69.74
2023-01-08T04:11:45.221Z,69.65
2023-01-08T04:14:15.959Z,69.76
2023-01-08T04:16:44.939Z,69.60
2023-01-08T04:19:14.958Z,69.59
2023-01-08T04:21:43.801Z,69.70
2023-01-08T04:24:14.437Z,69.44
2023-01-08T04:26:43.292Z,69.67
2023-01-08T04:29:12.507Z,69.43
2023-01-08T04:31:44.014Z,69.23
2023-01-08T04:34:13.002Z,69.08
2023-01-08T04:36:42.067Z,68.97
2023-01-08T04:39:12.237Z,69.14
2023-01-08T04:41:40.962Z,69.41
2023-01-08T04:44:11.211Z,69.39
2023-01-08T04:46:40.504Z,69.21
2023-01-08T04:49:13.070Z,69.26
2023-01-08T04:51:41.716Z,69.26
2023-01-08T04:54:10.889Z,69.25
2023-01-08T04:56:39.527Z,69.14
2023-01-08T04:59:08.565Z,69.27
2023-01-08T05:01:37.167Z,69.31
2023-01-08T05:04:28.449Z,69.18
2023-01-08T05:06:57.158Z,69.16
2023-01-08T05:09:30.256Z,69.29
2023-01-08T05:11:58.642Z,69.34
2023-01-08T05:14:27.335Z,69.34
2023-01-08T05:16:56.089Z,69.37
2023-01-08T05:19:26.503Z,69.51
2023-01-08T05:21:55.055Z,69.55
2023-01-08T05:24:25.039Z,69.49
2023-01-08T05:26:53.682Z,69.62
2023-01-08T05:29:22.125Z,69.42
2023-01-08T05:31:52.146Z,69.62
2023-01-08T05:34:21.342Z,69.43
2023-01-08T05:36:51.257Z,69.53
2023-01-08T05:39:20.812Z,69.38
2023-01-08T05:41:49.520Z,69.40
2023-01-08T05:44:18.979Z,69.21
2023-01-08T05:46:51.370Z,69.29
2023-01-08T05:49:24.675Z,69.13
2023-01-08T05:51:55.678Z,69.32
2023-01-08T05:54:58.547Z,69.53
2023-01-08T05:57:36.740Z,69.63
2023-01-08T06:00:10.408Z,69.56
2023-01-08T06:02:43.296Z,69.69
2023-01-08T06:05:12.271Z,70.02
2023-01-08T06:07:42.733Z,70.01
2023-01-08T06:10:15.053Z,69.98
2023-01-08T06:12:46.762Z,69.82
2023-01-08T06:15:16.495Z,70.07
2023-01-08T06:18:08.466Z,70.31
2023-01-08T06:20:45.094Z,70.57
2023-01-08T06:23:29.101Z,70.60
2023-01-08T06:55:02.219Z,70.28
2023-01-08T06:58:51.438Z,70.41
2023-01-08T07:01:46.797Z,70.35
2023-01-08T07:04:15.783Z,70.36
2023-01-08T07:07:09.130Z,70.29
2023-01-08T07:09:38.351Z,70.38
2023-01-08T07:12:14.500Z,70.42
2023-01-08T07:14:43.322Z,70.67
2023-01-08T07:20:42.166Z,70.56
2023-01-08T07:23:18.015Z,70.65
2023-01-08T07:26:12.928Z,70.56
2023-01-08T07:28:48.506Z,70.66
2023-01-08T07:31:20.948Z,70.86
2023-01-08T07:33:56.124Z,70.72
2023-01-08T07:36:34.505Z,70.66
2023-01-08T07:39:03.995Z,70.66
2023-01-08T07:41:44.849Z,70.74
2023-01-08T07:44:43.908Z,70.74
2023-01-08T07:47:15.576Z,70.71
2023-01-08T07:49:48.482Z,70.57
2023-01-08T07:52:18.398Z,70.71
2023-01-08T07:54:49.440Z,70.54
2023-01-08T07:57:19.713Z,70.76
2023-01-08T08:00:34.259Z,70.69
2023-01-08T08:03:16.883Z,70.75
2023-01-08T08:05:57.333Z,70.63
2023-01-08T08:11:33.670Z,70.74
2023-01-08T08:14:07.900Z,70.82
2023-01-08T08:30:09.445Z,70.86
2023-01-08T08:37:43.384Z,70.73
2023-01-08T08:42:24.836Z,71.05
2023-01-08T08:45:36.364Z,71.05
2023-01-08T09:00:21.511Z,71.05
2023-01-08T09:54:50.372Z,70.21
2023-01-08T09:57:23.917Z,69.72
2023-01-08T09:59:56.221Z,69.55
2023-01-08T10:02:29.133Z,69.57
2023-01-08T10:05:03.167Z,69.71
2023-01-08T10:07:35.341Z,69.25
2023-01-08T10:10:17.039Z,69.25
2023-01-08T10:12:55.982Z,69.15
2023-01-08T10:15:26.895Z,69.15
2023-01-08T10:18:06.149Z,69.07
2023-01-08T10:20:41.882Z,68.82
2023-01-08T10:35:08.071Z,68.13
2023-01-08T10:37:42.923Z,68.01
2023-01-08T10:40:25.923Z,67.89
2023-01-08T10:42:57.454Z,67.76
2023-01-08T10:45:29.918Z,67.39
2023-01-08T10:48:03.945Z,66.97
2023-01-08T10:50:37.329Z,66.74
2023-01-08T10:53:07.689Z,66.57
2023-01-08T11:04:23.676Z,65.26
2023-01-08T11:07:00.149Z,64.85
2023-01-08T11:12:36.157Z,64.17
2023-01-08T11:15:25.402Z,63.91
2023-01-08T11:17:55.237Z,63.80
2023-01-08T11:20:30.828Z,63.65
2023-01-08T11:23:08.371Z,63.76
2023-01-08T11:25:37.579Z,63.56
2023-01-08T11:28:13.193Z,63.49
2023-01-08T11:34:33.382Z,63.53
2023-01-08T11:37:06.871Z,62.93
2023-01-08T11:39:40.335Z,63.29
2023-01-08T11:42:21.507Z,63.44
2023-01-08T11:45:04.886Z,63.35
2023-01-08T11:48:05.762Z,63.71
2023-01-08T11:50:41.477Z,63.52
2023-01-08T11:53:24.499Z,63.45
2023-01-08T11:56:09.261Z,63.37
2023-01-08T11:58:52.197Z,63.52
2023-01-08T12:01:33.800Z,63.79
2023-01-08T12:04:30.590Z,63.81
2023-01-08T12:07:10.166Z,63.75
2023-01-08T12:09:43.176Z,63.80
2023-01-08T12:12:28.137Z,63.92
2023-01-08T12:15:08.540Z,63.92
2023-01-08T12:19:07.888Z,63.74
2023-01-08T12:21:51.904Z,63.68
2023-01-08T12:24:41.185Z,63.72
2023-01-08T12:27:17.734Z,63.40
2023-01-08T13:16:17.875Z,63.57
2023-01-08T13:42:09.658Z,65.10
2023-01-08T14:06:49.422Z,66.75
2023-01-08T14:18:21.511Z,66.91
2023-01-08T14:25:12.565Z,67.38
2023-01-08T15:01:54.510Z,68.98
2023-01-08T15:31:06.809Z,69.40
2023-01-08T15:38:42.958Z,69.65
2023-01-08T16:35:06.945Z,71.29
2023-01-08T17:00:52.854Z,71.70
2023-01-08T17:04:08.217Z,71.96
2023-01-08T17:07:40.850Z,71.68
2023-01-08T17:20:07.332Z,71.49
2023-01-08T17:22:37.391Z,71.46
2023-01-08T17:25:07.015Z,71.41
2023-01-08T17:27:38.660Z,71.33
2023-01-08T17:30:14.631Z,71.30
2023-01-08T17:32:52.494Z,71.40
2023-01-08T17:35:50.187Z,71.70
2023-01-08T17:38:25.120Z,71.56
2023-01-08T17:45:56.697Z,71.73
2023-01-08T17:49:20.640Z,71.97
2023-01-08T17:52:05.299Z,71.98
2023-01-08T17:54:34.367Z,72.07
2023-01-08T17:57:03.026Z,72.44
2023-01-08T17:59:31.662Z,72.15
2023-01-08T18:02:00.385Z,71.99
2023-01-08T18:05:20.576Z,71.74
2023-01-08T18:08:53.540Z,71.85
2023-01-08T18:19:44.670Z,72.81
2023-01-08T18:22:13.169Z,72.94
2023-01-08T18:24:42.240Z,73.04
2023-01-08T18:27:10.730Z,72.52
2023-01-08T18:29:39.929Z,72.63
2023-01-08T18:32:08.478Z,72.79
2023-01-08T18:34:43.001Z,72.76
2023-01-08T18:37:50.959Z,72.81
2023-01-08T18:40:20.312Z,72.80
2023-01-08T18:42:52.150Z,72.98
2023-01-08T18:45:53.376Z,73.26
2023-01-08T18:53:02.541Z,73.40
2023-01-08T18:56:40.555Z,73.28
2023-01-08T19:00:27.296Z,73.26
2023-01-08T19:03:36.776Z,73.34
2023-01-08T19:07:34.098Z,73.35
2023-01-08T19:10:27.911Z,73.35
2023-01-08T19:13:09.860Z,73.06
2023-01-08T19:15:47.883Z,73.16
2023-01-08T19:18:21.520Z,73.15
2023-01-08T19:20:55.712Z,73.11
2023-01-08T19:23:36.310Z,73.23
2023-01-08T19:26:28.001Z,73.19
2023-01-08T19:29:39.923Z,73.13
2023-01-08T19:32:28.487Z,73.19
2023-01-08T19:35:02.831Z,72.99
2023-01-08T19:37:33.516Z,73.07
2023-01-08T19:40:09.030Z,73.34
2023-01-08T19:46:28.916Z,73.14
2023-01-08T19:49:17.755Z,72.93
2023-01-08T19:51:54.819Z,72.81
2023-01-08T19:54:30.029Z,72.89
2023-01-08T19:56:58.545Z,72.81
2023-01-08T19:59:29.065Z,72.78
2023-01-08T20:01:57.521Z,72.79
2023-01-08T20:04:26.732Z,72.63
2023-01-08T20:06:57.613Z,72.61
2023-01-08T20:09:29.127Z,72.58
2023-01-08T20:11:58.297Z,72.46
2023-01-08T20:14:26.603Z,72.57
2023-01-08T20:16:56.673Z,72.52
2023-01-08T20:19:30.605Z,72.44
2023-01-08T20:22:04.839Z,72.63
2023-01-08T20:25:06.673Z,72.82
2023-01-08T20:28:54.346Z,72.83
2023-01-08T20:31:26.172Z,72.98
2023-01-08T20:34:02.027Z,73.12
2023-01-08T20:36:33.855Z,73.10
2023-01-08T20:39:11.968Z,72.91
2023-01-08T20:42:00.884Z,72.79
2023-01-08T20:44:53.172Z,72.84
2023-01-08T20:47:21.959Z,72.77
2023-01-08T20:50:12.309Z,72.72
2023-01-08T20:52:51.690Z,72.77
2023-01-08T20:55:32.659Z,72.61
2023-01-08T20:58:24.215Z,72.50
2023-01-08T21:01:31.123Z,72.52
2023-01-08T21:04:26.868Z,72.55
2023-01-08T21:07:28.347Z,72.54
2023-01-08T21:10:35.413Z,72.51
2023-01-08T21:13:50.017Z,72.67
2023-01-08T21:17:01.581Z,72.78
2023-01-08T21:19:43.988Z,73.03
2023-01-08T21:22:13.852Z,73.06
2023-01-08T21:24:43.379Z,73.03
2023-01-08T21:27:11.751Z,73.13
2023-01-08T21:29:40.597Z,73.03
2023-01-08T21:32:08.916Z,72.87
2023-01-08T21:34:37.671Z,72.90
2023-01-08T21:37:08.622Z,72.73
2023-01-08T21:47:19.224Z,72.50
2023-01-08T21:50:14.404Z,72.62
2023-01-08T21:53:17.318Z,72.57
2023-01-08T21:56:16.554Z,72.83
2023-01-08T21:59:00.127Z,72.67
2023-01-08T22:01:36.880Z,72.68
2023-01-08T22:04:14.794Z,72.65
2023-01-08T22:06:43.815Z,72.75
2023-01-08T22:12:25.976Z,73.11
2023-01-08T22:14:55.203Z,73.20
2023-01-08T22:17:30.773Z,73.06
2023-01-08T22:20:01.324Z,73.04
2023-01-08T22:22:30.256Z,73.08
2023-01-08T22:25:00.001Z,73.13
2023-01-08T22:27:30.367Z,73.19
2023-01-08T22:29:59.791Z,73.14
2023-01-08T23:01:26.352Z,73.02
2023-01-08T23:14:53.951Z,73.55
2023-01-08T23:55:05.242Z,73.57
